sensor_id;sensor_type;location;lat;lon;timestamp;P1;durP1;ratioP1;P2;durP2;ratioP2
71965;SDS011;59836;52.132;5.442;2022-07-22T00:02:26;3.78;;;1.33;;
71965;SDS011;59836;52.132;5.442;2022-07-22T00:04:53;5.07;;;1.40;;
71965;SDS011;59836;52.132;5.442;2022-07-22T00:07:34;4.38;;;1.98;;
71965;SDS011;59836;52.132;5.442;2022-07-22T00:10:02;6.15;;;1.77;;
71965;SDS011;59836;52.132;5.442;2022-07-22T00:12:31;9.82;;;1.70;;
71965;SDS011;59836;52.132;5.442;2022-07-22T00:18:08;4.40;;;1.70;;
71965;SDS011;59836;52.132;5.442;2022-07-22T00:26:35;2.85;;;1.02;;
71965;SDS011;59836;52.132;5.442;2022-07-22T00:29:01;3.40;;;1.38;;
71965;SDS011;59836;52.132;5.442;2022-07-22T00:31:28;4.70;;;1.90;;
71965;SDS011;59836;52.132;5.442;2022-07-22T00:34:00;5.28;;;1.48;;
71965;SDS011;59836;52.132;5.442;2022-07-22T00:36:28;5.88;;;1.73;;
71965;SDS011;59836;52.132;5.442;2022-07-22T00:41:54;4.43;;;1.88;;
71965;SDS011;59836;52.132;5.442;2022-07-22T00:50:21;5.93;;;1.20;;
71965;SDS011;59836;52.132;5.442;2022-07-22T00:53:04;2.47;;;1.20;;
71965;SDS011;59836;52.132;5.442;2022-07-22T00:55:37;4.03;;;1.50;;
71965;SDS011;59836;52.132;5.442;2022-07-22T00:58:04;3.73;;;1.00;;
71965;SDS011;59836;52.132;5.442;2022-07-22T01:00:36;3.53;;;1.20;;
71965;SDS011;59836;52.132;5.442;2022-07-22T01:03:02;5.25;;;1.52;;
71965;SDS011;59836;52.132;5.442;2022-07-22T01:08:45;3.55;;;1.30;;
71965;SDS011;59836;52.132;5.442;2022-07-22T01:11:16;5.00;;;0.83;;
71965;SDS011;59836;52.132;5.442;2022-07-22T01:13:49;4.15;;;0.93;;
71965;SDS011;59836;52.132;5.442;2022-07-22T01:16:17;4.05;;;1.50;;
71965;SDS011;59836;52.132;5.442;2022-07-22T01:18:44;4.72;;;1.02;;
71965;SDS011;59836;52.132;5.442;2022-07-22T01:21:12;3.42;;;1.00;;
71965;SDS011;59836;52.132;5.442;2022-07-22T01:23:44;3.60;;;1.03;;
71965;SDS011;59836;52.132;5.442;2022-07-22T01:26:13;5.35;;;1.10;;
71965;SDS011;59836;52.132;5.442;2022-07-22T01:28:40;4.47;;;1.00;;
71965;SDS011;59836;52.132;5.442;2022-07-22T01:31:19;4.88;;;1.15;;
71965;SDS011;59836;52.132;5.442;2022-07-22T01:33:46;6.88;;;1.27;;
71965;SDS011;59836;52.132;5.442;2022-07-22T01:36:13;5.57;;;1.17;;
71965;SDS011;59836;52.132;5.442;2022-07-22T01:38:40;2.22;;;0.90;;
71965;SDS011;59836;52.132;5.442;2022-07-22T01:41:09;6.07;;;1.15;;
71965;SDS011;59836;52.132;5.442;2022-07-22T01:46:15;2.30;;;0.95;;
71965;SDS011;59836;52.132;5.442;2022-07-22T01:48:43;2.53;;;0.63;;
71965;SDS011;59836;52.132;5.442;2022-07-22T01:51:12;6.70;;;1.30;;
71965;SDS011;59836;52.132;5.442;2022-07-22T01:53:39;5.50;;;1.23;;
71965;SDS011;59836;52.132;5.442;2022-07-22T01:56:19;2.05;;;1.10;;
71965;SDS011;59836;52.132;5.442;2022-07-22T01:58:45;5.82;;;1.20;;
71965;SDS011;59836;52.132;5.442;2022-07-22T02:01:12;5.03;;;1.43;;
71965;SDS011;59836;52.132;5.442;2022-07-22T02:03:51;4.35;;;1.17;;
71965;SDS011;59836;52.132;5.442;2022-07-22T02:06:19;3.15;;;1.50;;
71965;SDS011;59836;52.132;5.442;2022-07-22T02:08:46;4.05;;;1.17;;
71965;SDS011;59836;52.132;5.442;2022-07-22T02:11:12;5.10;;;1.88;;
71965;SDS011;59836;52.132;5.442;2022-07-22T02:13:46;3.50;;;1.40;;
71965;SDS011;59836;52.132;5.442;2022-07-22T02:16:12;5.40;;;1.60;;
71965;SDS011;59836;52.132;5.442;2022-07-22T02:18:45;10.40;;;1.70;;
71965;SDS011;59836;52.132;5.442;2022-07-22T02:21:11;4.95;;;2.13;;
71965;SDS011;59836;52.132;5.442;2022-07-22T02:23:48;5.20;;;1.33;;
71965;SDS011;59836;52.132;5.442;2022-07-22T02:26:14;5.37;;;1.47;;
71965;SDS011;59836;52.132;5.442;2022-07-22T02:28:41;6.22;;;1.20;;
71965;SDS011;59836;52.132;5.442;2022-07-22T02:31:08;3.53;;;1.40;;
71965;SDS011;59836;52.132;5.442;2022-07-22T02:33:34;5.80;;;1.63;;
71965;SDS011;59836;52.132;5.442;2022-07-22T02:36:01;3.92;;;1.40;;
71965;SDS011;59836;52.132;5.442;2022-07-22T02:38:42;5.17;;;1.23;;
71965;SDS011;59836;52.132;5.442;2022-07-22T02:41:08;6.60;;;1.20;;
71965;SDS011;59836;52.132;5.442;2022-07-22T02:43:35;4.32;;;1.58;;
71965;SDS011;59836;52.132;5.442;2022-07-22T02:49:11;3.40;;;1.60;;
71965;SDS011;59836;52.132;5.442;2022-07-22T02:51:45;3.87;;;1.37;;
71965;SDS011;59836;52.132;5.442;2022-07-22T02:54:11;5.40;;;1.65;;
71965;SDS011;59836;52.132;5.442;2022-07-22T03:02:39;3.97;;;1.50;;
71965;SDS011;59836;52.132;5.442;2022-07-22T03:05:18;6.70;;;1.40;;
71965;SDS011;59836;52.132;5.442;2022-07-22T03:07:45;2.60;;;1.55;;
71965;SDS011;59836;52.132;5.442;2022-07-22T03:10:26;7.38;;;1.58;;
71965;SDS011;59836;52.132;5.442;2022-07-22T03:12:56;5.40;;;1.70;;
71965;SDS011;59836;52.132;5.442;2022-07-22T03:15:23;4.72;;;1.45;;
71965;SDS011;59836;52.132;5.442;2022-07-22T03:17:49;3.87;;;1.70;;
71965;SDS011;59836;52.132;5.442;2022-07-22T03:20:16;5.28;;;1.80;;
71965;SDS011;59836;52.132;5.442;2022-07-22T03:22:53;3.85;;;1.92;;
71965;SDS011;59836;52.132;5.442;2022-07-22T03:25:19;4.97;;;1.08;;
71965;SDS011;59836;52.132;5.442;2022-07-22T03:28:02;3.35;;;1.60;;
71965;SDS011;59836;52.132;5.442;2022-07-22T03:30:36;5.27;;;1.57;;
71965;SDS011;59836;52.132;5.442;2022-07-22T03:35:36;3.45;;;1.50;;
71965;SDS011;59836;52.132;5.442;2022-07-22T03:40:45;4.60;;;1.55;;
71965;SDS011;59836;52.132;5.442;2022-07-22T03:43:18;2.53;;;1.03;;
71965;SDS011;59836;52.132;5.442;2022-07-22T03:45:45;4.30;;;1.17;;
71965;SDS011;59836;52.132;5.442;2022-07-22T03:50:43;3.10;;;1.52;;
71965;SDS011;59836;52.132;5.442;2022-07-22T03:56:16;4.37;;;1.57;;
71965;SDS011;59836;52.132;5.442;2022-07-22T03:58:43;7.75;;;1.70;;
71965;SDS011;59836;52.132;5.442;2022-07-22T04:04:00;5.50;;;1.63;;
71965;SDS011;59836;52.132;5.442;2022-07-22T04:06:38;3.25;;;1.40;;
71965;SDS011;59836;52.132;5.442;2022-07-22T04:09:04;4.00;;;1.20;;
71965;SDS011;59836;52.132;5.442;2022-07-22T04:14:28;3.33;;;1.40;;
71965;SDS011;59836;52.132;5.442;2022-07-22T04:26:14;6.28;;;1.25;;
71965;SDS011;59836;52.132;5.442;2022-07-22T04:28:42;4.40;;;1.13;;
71965;SDS011;59836;52.132;5.442;2022-07-22T04:31:17;3.38;;;1.25;;
71965;SDS011;59836;52.132;5.442;2022-07-22T04:33:47;2.67;;;1.30;;
71965;SDS011;59836;52.132;5.442;2022-07-22T04:36:17;4.70;;;1.20;;
71965;SDS011;59836;52.132;5.442;2022-07-22T04:38:43;5.40;;;1.50;;
71965;SDS011;59836;52.132;5.442;2022-07-22T04:41:10;4.25;;;1.38;;
71965;SDS011;59836;52.132;5.442;2022-07-22T04:43:36;1.80;;;1.13;;
71965;SDS011;59836;52.132;5.442;2022-07-22T04:46:10;2.45;;;1.30;;
71965;SDS011;59836;52.132;5.442;2022-07-22T04:51:06;2.38;;;1.27;;
71965;SDS011;59836;52.132;5.442;2022-07-22T04:53:40;6.00;;;1.50;;
71965;SDS011;59836;52.132;5.442;2022-07-22T04:56:13;1.55;;;1.20;;
71965;SDS011;59836;52.132;5.442;2022-07-22T04:58:42;3.58;;;1.10;;
71965;SDS011;59836;52.132;5.442;2022-07-22T05:01:15;3.10;;;1.00;;
71965;SDS011;59836;52.132;5.442;2022-07-22T05:03:42;2.78;;;0.80;;
71965;SDS011;59836;52.132;5.442;2022-07-22T05:06:09;3.05;;;1.00;;
71965;SDS011;59836;52.132;5.442;2022-07-22T05:08:38;3.03;;;1.50;;
71965;SDS011;59836;52.132;5.442;2022-07-22T05:11:06;3.30;;;1.20;;
71965;SDS011;59836;52.132;5.442;2022-07-22T05:13:45;4.27;;;1.00;;
71965;SDS011;59836;52.132;5.442;2022-07-22T05:16:18;2.75;;;1.15;;
71965;SDS011;59836;52.132;5.442;2022-07-22T05:19:01;6.20;;;1.10;;
71965;SDS011;59836;52.132;5.442;2022-07-22T05:24:43;3.22;;;0.90;;
71965;SDS011;59836;52.132;5.442;2022-07-22T05:27:11;4.00;;;0.90;;
71965;SDS011;59836;52.132;5.442;2022-07-22T05:29:38;5.28;;;0.80;;
71965;SDS011;59836;52.132;5.442;2022-07-22T05:32:15;2.00;;;1.05;;
71965;SDS011;59836;52.132;5.442;2022-07-22T05:34:43;2.83;;;1.30;;
71965;SDS011;59836;52.132;5.442;2022-07-22T05:39:46;3.23;;;1.00;;
71965;SDS011;59836;52.132;5.442;2022-07-22T05:45:06;2.75;;;1.17;;
71965;SDS011;59836;52.132;5.442;2022-07-22T05:50:25;2.72;;;1.02;;
71965;SDS011;59836;52.132;5.442;2022-07-22T05:52:51;2.27;;;1.13;;
71965;SDS011;59836;52.132;5.442;2022-07-22T05:58:03;2.40;;;1.13;;
71965;SDS011;59836;52.132;5.442;2022-07-22T06:03:47;2.03;;;1.08;;
71965;SDS011;59836;52.132;5.442;2022-07-22T06:06:13;1.40;;;0.83;;
71965;SDS011;59836;52.132;5.442;2022-07-22T06:08:42;3.97;;;0.93;;
71965;SDS011;59836;52.132;5.442;2022-07-22T06:14:08;1.77;;;1.15;;
71965;SDS011;59836;52.132;5.442;2022-07-22T06:19:32;2.20;;;0.90;;
71965;SDS011;59836;52.132;5.442;2022-07-22T06:21:59;6.50;;;1.10;;
71965;SDS011;59836;52.132;5.442;2022-07-22T06:24:33;5.15;;;1.30;;
71965;SDS011;59836;52.132;5.442;2022-07-22T06:27:00;4.38;;;1.30;;
71965;SDS011;59836;52.132;5.442;2022-07-22T06:29:26;3.97;;;1.60;;
71965;SDS011;59836;52.132;5.442;2022-07-22T06:31:57;2.23;;;0.87;;
71965;SDS011;59836;52.132;5.442;2022-07-22T06:34:28;4.78;;;1.10;;
71965;SDS011;59836;52.132;5.442;2022-07-22T06:37:09;3.75;;;1.27;;
71965;SDS011;59836;52.132;5.442;2022-07-22T06:39:36;3.53;;;1.17;;
71965;SDS011;59836;52.132;5.442;2022-07-22T06:42:06;3.45;;;0.88;;
71965;SDS011;59836;52.132;5.442;2022-07-22T06:44:38;3.80;;;0.90;;
71965;SDS011;59836;52.132;5.442;2022-07-22T06:47:04;2.78;;;0.90;;
71965;SDS011;59836;52.132;5.442;2022-07-22T06:49:31;1.63;;;1.00;;
71965;SDS011;59836;52.132;5.442;2022-07-22T06:51:57;2.97;;;0.80;;
71965;SDS011;59836;52.132;5.442;2022-07-22T06:57:16;3.03;;;1.07;;
71965;SDS011;59836;52.132;5.442;2022-07-22T06:59:43;1.70;;;0.82;;
71965;SDS011;59836;52.132;5.442;2022-07-22T07:02:26;2.05;;;0.90;;
71965;SDS011;59836;52.132;5.442;2022-07-22T07:04:54;4.15;;;0.80;;
71965;SDS011;59836;52.132;5.442;2022-07-22T07:07:21;1.58;;;1.00;;
71965;SDS011;59836;52.132;5.442;2022-07-22T07:15:56;2.22;;;1.23;;
71965;SDS011;59836;52.132;5.442;2022-07-22T07:18:22;2.80;;;0.80;;
71965;SDS011;59836;52.132;5.442;2022-07-22T07:20:49;4.75;;;1.25;;
71965;SDS011;59836;52.132;5.442;2022-07-22T07:23:16;4.30;;;0.97;;
71965;SDS011;59836;52.132;5.442;2022-07-22T07:25:43;2.17;;;0.90;;
71965;SDS011;59836;52.132;5.442;2022-07-22T07:28:09;5.85;;;1.33;;
71965;SDS011;59836;52.132;5.442;2022-07-22T07:30:36;4.20;;;1.15;;
71965;SDS011;59836;52.132;5.442;2022-07-22T07:33:02;3.25;;;1.20;;
71965;SDS011;59836;52.132;5.442;2022-07-22T07:35:29;2.13;;;0.80;;
71965;SDS011;59836;52.132;5.442;2022-07-22T07:37:57;2.40;;;0.90;;
71965;SDS011;59836;52.132;5.442;2022-07-22T07:40:23;4.85;;;1.73;;
71965;SDS011;59836;52.132;5.442;2022-07-22T07:42:50;4.00;;;1.00;;
71965;SDS011;59836;52.132;5.442;2022-07-22T07:45:27;2.25;;;1.02;;
71965;SDS011;59836;52.132;5.442;2022-07-22T07:47:54;4.63;;;0.90;;
71965;SDS011;59836;52.132;5.442;2022-07-22T07:50:21;2.42;;;0.95;;
71965;SDS011;59836;52.132;5.442;2022-07-22T07:52:47;4.50;;;0.90;;
71965;SDS011;59836;52.132;5.442;2022-07-22T07:55:18;5.53;;;1.00;;
71965;SDS011;59836;52.132;5.442;2022-07-22T07:57:46;3.78;;;1.33;;
71965;SDS011;59836;52.132;5.442;2022-07-22T08:00:17;3.03;;;1.33;;
71965;SDS011;59836;52.132;5.442;2022-07-22T08:02:47;2.15;;;1.00;;
71965;SDS011;59836;52.132;5.442;2022-07-22T08:05:14;4.35;;;1.40;;
71965;SDS011;59836;52.132;5.442;2022-07-22T08:07:41;1.25;;;0.90;;
71965;SDS011;59836;52.132;5.442;2022-07-22T08:10:08;3.95;;;1.23;;
71965;SDS011;59836;52.132;5.442;2022-07-22T08:12:56;2.07;;;0.80;;
71965;SDS011;59836;52.132;5.442;2022-07-22T08:15:25;3.35;;;1.10;;
71965;SDS011;59836;52.132;5.442;2022-07-22T08:17:52;3.28;;;1.08;;
71965;SDS011;59836;52.132;5.442;2022-07-22T08:20:20;3.05;;;1.38;;
71965;SDS011;59836;52.132;5.442;2022-07-22T08:22:48;2.33;;;0.90;;
71965;SDS011;59836;52.132;5.442;2022-07-22T08:25:16;1.83;;;0.80;;
71965;SDS011;59836;52.132;5.442;2022-07-22T08:27:42;3.65;;;1.05;;
71965;SDS011;59836;52.132;5.442;2022-07-22T08:30:09;4.07;;;0.88;;
71965;SDS011;59836;52.132;5.442;2022-07-22T08:32:36;2.03;;;0.88;;
71965;SDS011;59836;52.132;5.442;2022-07-22T08:35:03;5.15;;;1.00;;
71965;SDS011;59836;52.132;5.442;2022-07-22T08:37:30;5.63;;;0.70;;
71965;SDS011;59836;52.132;5.442;2022-07-22T08:39:57;3.53;;;1.10;;
71965;SDS011;59836;52.132;5.442;2022-07-22T08:42:39;2.65;;;0.80;;
71965;SDS011;59836;52.132;5.442;2022-07-22T08:45:09;1.92;;;1.02;;
71965;SDS011;59836;52.132;5.442;2022-07-22T08:47:44;4.53;;;1.20;;
71965;SDS011;59836;52.132;5.442;2022-07-22T08:50:12;3.17;;;1.08;;
71965;SDS011;59836;52.132;5.442;2022-07-22T08:52:39;2.40;;;1.10;;
71965;SDS011;59836;52.132;5.442;2022-07-22T08:55:06;3.17;;;0.93;;
71965;SDS011;59836;52.132;5.442;2022-07-22T08:57:33;4.57;;;1.15;;
71965;SDS011;59836;52.132;5.442;2022-07-22T09:00:08;3.97;;;1.17;;
71965;SDS011;59836;52.132;5.442;2022-07-22T09:02:37;1.80;;;1.02;;
71965;SDS011;59836;52.132;5.442;2022-07-22T09:05:06;1.90;;;1.00;;
71965;SDS011;59836;52.132;5.442;2022-07-22T09:07:57;3.90;;;0.80;;
71965;SDS011;59836;52.132;5.442;2022-07-22T09:10:30;4.13;;;1.17;;
71965;SDS011;59836;52.132;5.442;2022-07-22T09:12:59;2.75;;;0.90;;
71965;SDS011;59836;52.132;5.442;2022-07-22T09:15:31;3.50;;;0.80;;
71965;SDS011;59836;52.132;5.442;2022-07-22T09:18:02;1.27;;;0.60;;
71965;SDS011;59836;52.132;5.442;2022-07-22T09:20:32;2.50;;;0.82;;
71965;SDS011;59836;52.132;5.442;2022-07-22T09:23:08;1.80;;;1.17;;
71965;SDS011;59836;52.132;5.442;2022-07-22T09:25:36;2.70;;;0.82;;
71965;SDS011;59836;52.132;5.442;2022-07-22T09:33:05;3.50;;;1.13;;
71965;SDS011;59836;52.132;5.442;2022-07-22T09:35:34;3.08;;;1.00;;
71965;SDS011;59836;52.132;5.442;2022-07-22T09:38:02;1.80;;;0.90;;
71965;SDS011;59836;52.132;5.442;2022-07-22T09:40:34;2.85;;;1.25;;
71965;SDS011;59836;52.132;5.442;2022-07-22T09:46:34;3.67;;;1.20;;
71965;SDS011;59836;52.132;5.442;2022-07-22T09:49:02;3.42;;;1.00;;
71965;SDS011;59836;52.132;5.442;2022-07-22T09:51:29;3.35;;;1.33;;
71965;SDS011;59836;52.132;5.442;2022-07-22T09:53:56;5.55;;;1.25;;
71965;SDS011;59836;52.132;5.442;2022-07-22T09:56:23;3.70;;;1.30;;
71965;SDS011;59836;52.132;5.442;2022-07-22T09:58:51;3.28;;;1.10;;
71965;SDS011;59836;52.132;5.442;2022-07-22T10:01:17;2.63;;;1.17;;
71965;SDS011;59836;52.132;5.442;2022-07-22T10:03:44;1.92;;;1.35;;
71965;SDS011;59836;52.132;5.442;2022-07-22T10:06:14;4.72;;;1.00;;
71965;SDS011;59836;52.132;5.442;2022-07-22T10:08:41;2.20;;;1.20;;
71965;SDS011;59836;52.132;5.442;2022-07-22T10:11:07;5.03;;;1.35;;
71965;SDS011;59836;52.132;5.442;2022-07-22T10:13:34;3.20;;;1.35;;
71965;SDS011;59836;52.132;5.442;2022-07-22T10:16:03;3.35;;;1.17;;
71965;SDS011;59836;52.132;5.442;2022-07-22T10:18:31;2.35;;;1.30;;
71965;SDS011;59836;52.132;5.442;2022-07-22T10:21:02;3.33;;;1.00;;
71965;SDS011;59836;52.132;5.442;2022-07-22T10:23:33;2.88;;;1.17;;
71965;SDS011;59836;52.132;5.442;2022-07-22T10:26:00;3.03;;;1.40;;
71965;SDS011;59836;52.132;5.442;2022-07-22T10:28:35;2.60;;;1.17;;
71965;SDS011;59836;52.132;5.442;2022-07-22T10:31:19;2.47;;;1.00;;
71965;SDS011;59836;52.132;5.442;2022-07-22T10:33:52;1.90;;;1.10;;
71965;SDS011;59836;52.132;5.442;2022-07-22T10:36:37;3.25;;;1.10;;
71965;SDS011;59836;52.132;5.442;2022-07-22T10:39:09;4.70;;;1.13;;
71965;SDS011;59836;52.132;5.442;2022-07-22T10:41:38;3.85;;;1.40;;
71965;SDS011;59836;52.132;5.442;2022-07-22T10:44:07;4.53;;;1.67;;
71965;SDS011;59836;52.132;5.442;2022-07-22T10:46:50;4.13;;;1.30;;
71965;SDS011;59836;52.132;5.442;2022-07-22T10:49:19;5.55;;;1.42;;
71965;SDS011;59836;52.132;5.442;2022-07-22T10:52:08;3.60;;;1.40;;
71965;SDS011;59836;52.132;5.442;2022-07-22T10:57:44;2.38;;;1.35;;
71965;SDS011;59836;52.132;5.442;2022-07-22T11:00:11;1.70;;;1.00;;
71965;SDS011;59836;52.132;5.442;2022-07-22T11:02:41;6.40;;;1.15;;
71965;SDS011;59836;52.132;5.442;2022-07-22T11:05:08;3.20;;;1.27;;
71965;SDS011;59836;52.132;5.442;2022-07-22T11:07:44;3.25;;;1.10;;
71965;SDS011;59836;52.132;5.442;2022-07-22T11:10:25;3.97;;;1.30;;
71965;SDS011;59836;52.132;5.442;2022-07-22T11:12:51;2.67;;;1.20;;
71965;SDS011;59836;52.132;5.442;2022-07-22T11:15:18;2.22;;;1.17;;
71965;SDS011;59836;52.132;5.442;2022-07-22T11:17:51;3.58;;;1.27;;
71965;SDS011;59836;52.132;5.442;2022-07-22T11:20:22;5.18;;;1.58;;
71965;SDS011;59836;52.132;5.442;2022-07-22T11:22:49;2.35;;;1.50;;
71965;SDS011;59836;52.132;5.442;2022-07-22T11:25:18;1.63;;;1.40;;
71965;SDS011;59836;52.132;5.442;2022-07-22T11:27:53;5.32;;;1.80;;
71965;SDS011;59836;52.132;5.442;2022-07-22T11:30:21;2.22;;;1.50;;
71965;SDS011;59836;52.132;5.442;2022-07-22T11:32:47;2.75;;;1.52;;
71965;SDS011;59836;52.132;5.442;2022-07-22T11:35:15;4.38;;;1.60;;
71965;SDS011;59836;52.132;5.442;2022-07-22T11:37:42;3.97;;;1.77;;
71965;SDS011;59836;52.132;5.442;2022-07-22T11:40:09;2.55;;;1.48;;
71965;SDS011;59836;52.132;5.442;2022-07-22T11:42:36;2.90;;;2.00;;
71965;SDS011;59836;52.132;5.442;2022-07-22T11:45:03;2.33;;;1.67;;
71965;SDS011;59836;52.132;5.442;2022-07-22T11:47:30;3.42;;;2.42;;
71965;SDS011;59836;52.132;5.442;2022-07-22T11:49:57;4.10;;;2.30;;
71965;SDS011;59836;52.132;5.442;2022-07-22T11:52:23;4.95;;;2.20;;
71965;SDS011;59836;52.132;5.442;2022-07-22T11:54:50;3.75;;;2.00;;
71965;SDS011;59836;52.132;5.442;2022-07-22T11:57:16;4.15;;;2.00;;
71965;SDS011;59836;52.132;5.442;2022-07-22T11:59:43;4.03;;;2.35;;
71965;SDS011;59836;52.132;5.442;2022-07-22T12:02:09;6.47;;;2.63;;
71965;SDS011;59836;52.132;5.442;2022-07-22T12:04:39;3.70;;;2.20;;
71965;SDS011;59836;52.132;5.442;2022-07-22T12:07:07;3.25;;;2.42;;
71965;SDS011;59836;52.132;5.442;2022-07-22T12:09:37;4.97;;;2.00;;
71965;SDS011;59836;52.132;5.442;2022-07-22T12:12:07;5.00;;;2.30;;
71965;SDS011;59836;52.132;5.442;2022-07-22T12:14:34;4.40;;;2.23;;
71965;SDS011;59836;52.132;5.442;2022-07-22T12:17:02;4.45;;;2.50;;
71965;SDS011;59836;52.132;5.442;2022-07-22T12:19:32;5.55;;;3.00;;
71965;SDS011;59836;52.132;5.442;2022-07-22T12:22:02;3.60;;;2.30;;
71965;SDS011;59836;52.132;5.442;2022-07-22T12:26:59;3.93;;;2.43;;
71965;SDS011;59836;52.132;5.442;2022-07-22T12:32:03;4.50;;;2.72;;
71965;SDS011;59836;52.132;5.442;2022-07-22T12:34:38;4.90;;;2.67;;
71965;SDS011;59836;52.132;5.442;2022-07-22T12:37:19;7.57;;;2.67;;
71965;SDS011;59836;52.132;5.442;2022-07-22T12:40:04;3.50;;;2.30;;
71965;SDS011;59836;52.132;5.442;2022-07-22T12:42:37;2.70;;;2.50;;
71965;SDS011;59836;52.132;5.442;2022-07-22T12:45:07;3.30;;;2.47;;
71965;SDS011;59836;52.132;5.442;2022-07-22T12:47:41;4.13;;;2.60;;
71965;SDS011;59836;52.132;5.442;2022-07-22T12:50:15;3.92;;;2.50;;
71965;SDS011;59836;52.132;5.442;2022-07-22T12:52:42;4.97;;;2.30;;
71965;SDS011;59836;52.132;5.442;2022-07-22T12:55:29;2.78;;;2.25;;
71965;SDS011;59836;52.132;5.442;2022-07-22T12:57:57;5.70;;;3.22;;
71965;SDS011;59836;52.132;5.442;2022-07-22T13:00:25;4.55;;;2.13;;
71965;SDS011;59836;52.132;5.442;2022-07-22T13:02:53;3.67;;;2.47;;
71965;SDS011;59836;52.132;5.442;2022-07-22T13:05:20;2.60;;;2.40;;
71965;SDS011;59836;52.132;5.442;2022-07-22T13:07:46;4.80;;;3.03;;
71965;SDS011;59836;52.132;5.442;2022-07-22T13:10:13;5.43;;;2.50;;
71965;SDS011;59836;52.132;5.442;2022-07-22T13:12:41;6.40;;;2.70;;
71965;SDS011;59836;52.132;5.442;2022-07-22T13:15:08;6.45;;;2.88;;
71965;SDS011;59836;52.132;5.442;2022-07-22T13:17:35;5.80;;;2.23;;
71965;SDS011;59836;52.132;5.442;2022-07-22T13:20:03;4.68;;;3.20;;
71965;SDS011;59836;52.132;5.442;2022-07-22T13:22:30;4.80;;;3.35;;
71965;SDS011;59836;52.132;5.442;2022-07-22T13:24:57;4.90;;;2.80;;
71965;SDS011;59836;52.132;5.442;2022-07-22T13:27:24;5.15;;;2.60;;
71965;SDS011;59836;52.132;5.442;2022-07-22T13:29:50;4.57;;;2.57;;
71965;SDS011;59836;52.132;5.442;2022-07-22T13:32:17;3.33;;;2.72;;
71965;SDS011;59836;52.132;5.442;2022-07-22T13:34:47;4.18;;;2.72;;
71965;SDS011;59836;52.132;5.442;2022-07-22T13:37:13;5.50;;;3.10;;
71965;SDS011;59836;52.132;5.442;2022-07-22T13:39:40;4.50;;;2.90;;
71965;SDS011;59836;52.132;5.442;2022-07-22T13:42:08;5.87;;;3.20;;
71965;SDS011;59836;52.132;5.442;2022-07-22T13:44:34;3.63;;;3.10;;
71965;SDS011;59836;52.132;5.442;2022-07-22T13:47:03;4.30;;;3.10;;
71965;SDS011;59836;52.132;5.442;2022-07-22T13:49:30;4.30;;;2.88;;
71965;SDS011;59836;52.132;5.442;2022-07-22T13:52:00;5.05;;;2.65;;
71965;SDS011;59836;52.132;5.442;2022-07-22T13:54:28;3.13;;;2.37;;
71965;SDS011;59836;52.132;5.442;2022-07-22T13:56:54;4.15;;;2.97;;
71965;SDS011;59836;52.132;5.442;2022-07-22T13:59:21;4.28;;;3.10;;
71965;SDS011;59836;52.132;5.442;2022-07-22T14:01:49;4.30;;;2.63;;
71965;SDS011;59836;52.132;5.442;2022-07-22T14:04:16;5.38;;;2.72;;
71965;SDS011;59836;52.132;5.442;2022-07-22T14:06:42;3.93;;;2.70;;
71965;SDS011;59836;52.132;5.442;2022-07-22T14:09:09;4.82;;;2.67;;
71965;SDS011;59836;52.132;5.442;2022-07-22T14:11:55;3.85;;;2.47;;
71965;SDS011;59836;52.132;5.442;2022-07-22T14:14:22;3.38;;;2.50;;
71965;SDS011;59836;52.132;5.442;2022-07-22T14:16:49;4.85;;;2.58;;
71965;SDS011;59836;52.132;5.442;2022-07-22T14:19:25;3.33;;;2.30;;
71965;SDS011;59836;52.132;5.442;2022-07-22T14:21:52;2.45;;;2.22;;
71965;SDS011;59836;52.132;5.442;2022-07-22T14:24:18;4.70;;;2.78;;
71965;SDS011;59836;52.132;5.442;2022-07-22T14:26:45;3.25;;;2.28;;
71965;SDS011;59836;52.132;5.442;2022-07-22T14:31:43;4.43;;;2.33;;
71965;SDS011;59836;52.132;5.442;2022-07-22T14:34:10;4.97;;;2.70;;
71965;SDS011;59836;52.132;5.442;2022-07-22T14:36:36;4.30;;;2.33;;
71965;SDS011;59836;52.132;5.442;2022-07-22T14:39:03;5.38;;;3.28;;
71965;SDS011;59836;52.132;5.442;2022-07-22T14:41:41;4.72;;;2.10;;
71965;SDS011;59836;52.132;5.442;2022-07-22T14:44:07;7.40;;;2.30;;
71965;SDS011;59836;52.132;5.442;2022-07-22T14:46:34;5.22;;;2.65;;
71965;SDS011;59836;52.132;5.442;2022-07-22T14:49:00;4.47;;;2.20;;
71965;SDS011;59836;52.132;5.442;2022-07-22T14:51:27;5.10;;;2.22;;
71965;SDS011;59836;52.132;5.442;2022-07-22T14:53:54;4.75;;;2.10;;
71965;SDS011;59836;52.132;5.442;2022-07-22T14:56:21;4.17;;;1.63;;
71965;SDS011;59836;52.132;5.442;2022-07-22T14:58:47;4.55;;;1.70;;
71965;SDS011;59836;52.132;5.442;2022-07-22T15:01:14;2.13;;;1.80;;
71965;SDS011;59836;52.132;5.442;2022-07-22T15:03:49;3.05;;;1.73;;
71965;SDS011;59836;52.132;5.442;2022-07-22T15:06:16;5.63;;;1.95;;
71965;SDS011;59836;52.132;5.442;2022-07-22T15:08:42;3.97;;;1.87;;
71965;SDS011;59836;52.132;5.442;2022-07-22T15:11:09;4.28;;;1.90;;
71965;SDS011;59836;52.132;5.442;2022-07-22T15:13:35;3.28;;;2.03;;
71965;SDS011;59836;52.132;5.442;2022-07-22T15:16:02;5.90;;;2.35;;
71965;SDS011;59836;52.132;5.442;2022-07-22T15:18:28;4.93;;;1.65;;
71965;SDS011;59836;52.132;5.442;2022-07-22T15:20:55;6.03;;;1.70;;
71965;SDS011;59836;52.132;5.442;2022-07-22T15:23:23;2.10;;;1.30;;
71965;SDS011;59836;52.132;5.442;2022-07-22T15:25:52;2.70;;;1.73;;
71965;SDS011;59836;52.132;5.442;2022-07-22T15:28:19;4.47;;;1.92;;
71965;SDS011;59836;52.132;5.442;2022-07-22T15:31:01;7.03;;;1.75;;
71965;SDS011;59836;52.132;5.442;2022-07-22T15:33:28;3.90;;;1.60;;
71965;SDS011;59836;52.132;5.442;2022-07-22T15:36:06;3.25;;;1.40;;
71965;SDS011;59836;52.132;5.442;2022-07-22T15:38:35;3.50;;;2.22;;
71965;SDS011;59836;52.132;5.442;2022-07-22T15:41:03;4.13;;;1.40;;
71965;SDS011;59836;52.132;5.442;2022-07-22T15:43:32;4.63;;;2.47;;
71965;SDS011;59836;52.132;5.442;2022-07-22T15:45:58;6.93;;;2.33;;
71965;SDS011;59836;52.132;5.442;2022-07-22T15:48:25;7.40;;;2.58;;
71965;SDS011;59836;52.132;5.442;2022-07-22T15:50:52;6.25;;;2.70;;
71965;SDS011;59836;52.132;5.442;2022-07-22T15:53:24;6.07;;;2.10;;
71965;SDS011;59836;52.132;5.442;2022-07-22T15:55:53;5.63;;;2.22;;
71965;SDS011;59836;52.132;5.442;2022-07-22T15:58:20;2.73;;;1.37;;
71965;SDS011;59836;52.132;5.442;2022-07-22T16:01:05;4.95;;;1.13;;
71965;SDS011;59836;52.132;5.442;2022-07-22T16:03:31;5.05;;;2.08;;
71965;SDS011;59836;52.132;5.442;2022-07-22T16:05:58;2.85;;;1.13;;
71965;SDS011;59836;52.132;5.442;2022-07-22T16:08:31;3.20;;;1.38;;
71965;SDS011;59836;52.132;5.442;2022-07-22T16:10:58;4.07;;;1.80;;
71965;SDS011;59836;52.132;5.442;2022-07-22T16:13:24;4.32;;;1.70;;
71965;SDS011;59836;52.132;5.442;2022-07-22T16:15:51;3.83;;;1.65;;
71965;SDS011;59836;52.132;5.442;2022-07-22T16:18:17;2.88;;;1.20;;
71965;SDS011;59836;52.132;5.442;2022-07-22T16:20:45;4.00;;;1.50;;
71965;SDS011;59836;52.132;5.442;2022-07-22T16:23:12;3.57;;;1.20;;
71965;SDS011;59836;52.132;5.442;2022-07-22T16:25:39;5.60;;;1.20;;
71965;SDS011;59836;52.132;5.442;2022-07-22T16:30:38;2.72;;;1.50;;
71965;SDS011;59836;52.132;5.442;2022-07-22T16:33:04;2.22;;;1.10;;
71965;SDS011;59836;52.132;5.442;2022-07-22T16:35:32;2.40;;;1.10;;
71965;SDS011;59836;52.132;5.442;2022-07-22T16:37:58;4.55;;;1.55;;
71965;SDS011;59836;52.132;5.442;2022-07-22T16:40:28;3.83;;;1.30;;
71965;SDS011;59836;52.132;5.442;2022-07-22T16:42:55;3.38;;;1.50;;
71965;SDS011;59836;52.132;5.442;2022-07-22T16:45:22;2.58;;;1.52;;
71965;SDS011;59836;52.132;5.442;2022-07-22T16:47:53;3.43;;;1.20;;
71965;SDS011;59836;52.132;5.442;2022-07-22T16:50:30;4.68;;;1.40;;
71965;SDS011;59836;52.132;5.442;2022-07-22T16:53:00;3.10;;;1.45;;
71965;SDS011;59836;52.132;5.442;2022-07-22T16:55:27;2.58;;;1.10;;
71965;SDS011;59836;52.132;5.442;2022-07-22T16:58:04;2.72;;;1.20;;